Time;durP1;ratioP1;P1;durP2;ratioP2;P2;SDS_P1;SDS_P2;PMS_P1;PMS_P2;Temp;Humidity;BMP_temperature;BMP_pressure;BME280_temperature;BME280_humidity;BME280_pressure;Samples;Min_cycle;Max_cycle;Signal;HPM_P1;HPM_P2
2021/12/05 04:49:21;;;;;;;;;0.00;0.00;;;;;;;;6251642;22;30120;-83
2021/12/05 04:51:54;;;;;;;;;0.00;0.00;;;;;;;;6186854;22;28588;-83
2021/12/05 04:54:20;;;;;;;;;0.00;0.00;;;;;;;;6184125;22;28421;-84
2021/12/05 07:49:34;;;;;;;;;1.00;0.00;;;;;;;;6228183;22;28746;-82
2021/12/05 07:52:02;;;;;;;;;0.00;0.00;;;;;;;;6253571;22;28321;-82
2021/12/05 07:57:30;;;;;;;;;0.00;0.00;;;;;;;;6137934;23;28397;-82
2021/12/05 08:14:34;;;;;;;;;0.75;0.75;;;;;;;;6248612;22;28528;-83
2021/12/05 08:20:12;;;;;;;;;1.00;0.50;;;;;;;;6126191;23;28740;-81
2021/12/05 08:22:39;;;;;;;;;4.50;4.00;;;;;;;;6104185;23;28504;-81
2021/12/05 08:25:12;;;;;;;;;7.00;1.00;;;;;;;;6151204;23;28615;-81
2021/12/05 08:27:42;;;;;;;;;6.75;5.75;;;;;;;;6105895;23;30962;-81
2021/12/05 08:30:12;;;;;;;;;4.25;4.25;;;;;;;;6101466;23;28666;-84
2021/12/05 08:46:07;;;;;;;;;1.50;1.00;;;;;;;;6125787;23;28739;-82
2021/12/05 10:14:41;;;;;;;;;2.25;1.00;;;;;;;;6245055;22;28977;-81
2021/12/05 10:33:46;;;;;;;;;5.25;2.75;;;;;;;;6247274;22;28558;-79
2021/12/05 10:36:25;;;;;;;;;2.25;0.75;;;;;;;;6248299;22;29204;-79
2021/12/05 10:38:52;;;;;;;;;1.00;1.00;;;;;;;;6263212;22;28168;-78
2021/12/05 10:41:34;;;;;;;;;2.75;2.00;;;;;;;;6256157;22;28694;-77
2021/12/05 10:44:04;;;;;;;;;2.75;2.75;;;;;;;;6220539;22;28658;-78
2021/12/05 10:46:33;;;;;;;;;7.00;4.00;;;;;;;;6262769;22;28499;-77
2021/12/05 11:01:58;;;;;;;;;5.00;2.00;;;;;;;;6248883;22;28530;-77
2021/12/05 11:04:25;;;;;;;;;1.50;1.00;;;;;;;;6245735;22;28506;-77
2021/12/05 11:07:06;;;;;;;;;;;;;;;;;;;;;
2021/12/05 11:09:33;;;;;;;;;3.25;2.00;;;;;;;;6249045;22;55793;-79
2021/12/05 11:12:01;;;;;;;;;1.00;1.00;;;;;;;;6253565;22;28548;-76
2021/12/05 11:14:28;;;;;;;;;2.00;2.00;;;;;;;;6225215;22;28562;-77
2021/12/05 11:16:56;;;;;;;;;1.00;1.00;;;;;;;;6224249;22;28580;-78
2021/12/05 11:19:23;;;;;;;;;1.25;1.25;;;;;;;;6249074;22;27855;-77
2021/12/05 11:21:56;;;;;;;;;1.00;1.00;;;;;;;;6252459;22;28523;-79
2021/12/05 11:24:25;;;;;;;;;4.25;2.00;;;;;;;;6250775;22;28606;-79
2021/12/05 11:27:08;;;;;;;;;6.75;3.00;;;;;;;;6228424;22;30375;-78
2021/12/05 11:29:46;;;;;;;;;1.75;1.25;;;;;;;;6249991;22;28469;-78
2021/12/05 11:32:14;;;;;;;;;1.25;1.00;;;;;;;;6255107;22;28653;-79
2021/12/05 11:34:43;;;;;;;;;2.75;2.00;;;;;;;;6250343;22;28364;-81
2021/12/05 11:37:08;;;;;;;;;7.75;7.00;;;;;;;;6225069;22;30094;-76
2021/12/05 11:39:36;;;;;;;;;9.50;3.00;;;;;;;;6255460;22;28510;-76
2021/12/05 11:42:09;;;;;;;;;1.75;1.50;;;;;;;;6255023;22;28521;-76
2021/12/05 11:44:35;;;;;;;;;6.50;2.00;;;;;;;;6247256;22;28536;-77
2021/12/05 11:47:09;;;;;;;;;1.00;1.00;;;;;;;;6224378;22;28491;-77
2021/12/05 11:49:35;;;;;;;;;2.50;1.50;;;;;;;;6224655;22;28524;-76
2021/12/05 11:52:02;;;;;;;;;1.75;1.75;;;;;;;;6252986;22;28494;-77
2021/12/05 11:54:30;;;;;;;;;3.00;3.00;;;;;;;;6249493;22;28598;-77
2021/12/05 11:57:05;;;;;;;;;3.00;2.00;;;;;;;;6258445;22;29147;-77
2021/12/05 23:02:19;;;;;;;;;3.25;1.75;;;;;;;;6282757;22;1422783;-79
2021/12/05 23:04:44;;;;;;;;;0.75;0.75;;;;;;;;6341534;22;8801;-78
2021/12/05 23:07:09;;;;;;;;;5.67;2.00;;;;;;;;6337336;22;8745;-78
